DLH6M EDDM-EDDF
Flight info
| Callsign | DLH6M |
|---|---|
| Flight time | 0h 25m |
| Altitude | 24000 |
| Route | GIVMI6Q GIVMI Y101 ERNAS T161 DEBHI DEBHI1B |
| Aircraft | A346/H-SDE2E3FGHIJ3J4J5M1RWXY/LB1D1 |
Departure
| Time | 2026-05-06 16:19 |
|---|---|
| Airport | Munich Airport (EDDM) |
Arrival
| Time | 2026-05-06 16:44 |
|---|---|
| Airport | Frankfurt Main Airport (EDDF) |
| Time | Latitude | Longitude | Altitude | Speed | Heading |
|---|---|---|---|---|---|
| 2026-05-06 15:44 | 48.35261 | 11.80033 | 1494 ft | 0 kts | 263° |
| 2026-05-06 16:03 | 48.35261 | 11.80034 | 1494 ft | 1 kts | 263° |
| 2026-05-06 16:03 | 48.35264 | 11.80070 | 1485 ft | 4 kts | 263° |
| 2026-05-06 16:04 | 48.35266 | 11.80107 | 1477 ft | 1 kts | 263° |
| 2026-05-06 16:04 | 48.35267 | 11.80139 | 1477 ft | 4 kts | 280° |
| 2026-05-06 16:04 | 48.35260 | 11.80166 | 1477 ft | 4 kts | 312° |
| 2026-05-06 16:04 | 48.35245 | 11.80179 | 1477 ft | 4 kts | 351° |
| 2026-05-06 16:05 | 48.35220 | 11.80184 | 1481 ft | 4 kts | 353° |
| 2026-05-06 16:05 | 48.35203 | 11.80187 | 1477 ft | 0 kts | 353° |
| 2026-05-06 16:08 | 48.35209 | 11.80186 | 1494 ft | 3 kts | 353° |
| 2026-05-06 16:08 | 48.35248 | 11.80179 | 1480 ft | 8 kts | 353° |
| 2026-05-06 16:08 | 48.35311 | 11.80168 | 1487 ft | 10 kts | 353° |
| 2026-05-06 16:08 | 48.35388 | 11.80149 | 1479 ft | 12 kts | 346° |
| 2026-05-06 16:09 | 48.35480 | 11.80128 | 1480 ft | 14 kts | 353° |
| 2026-05-06 16:09 | 48.35584 | 11.80110 | 1480 ft | 16 kts | 353° |
| 2026-05-06 16:09 | 48.35684 | 11.80088 | 1487 ft | 10 kts | 346° |
| 2026-05-06 16:09 | 48.35761 | 11.80070 | 1486 ft | 9 kts | 354° |
| 2026-05-06 16:10 | 48.35817 | 11.80039 | 1477 ft | 10 kts | 309° |
| 2026-05-06 16:10 | 48.35824 | 11.79929 | 1494 ft | 12 kts | 264° |
| 2026-05-06 16:10 | 48.35814 | 11.79793 | 1484 ft | 14 kts | 264° |
| 2026-05-06 16:10 | 48.35804 | 11.79666 | 1485 ft | 7 kts | 263° |
| 2026-05-06 16:11 | 48.35800 | 11.79613 | 1484 ft | 6 kts | 263° |
| 2026-05-06 16:11 | 48.35806 | 11.79546 | 1477 ft | 7 kts | 311° |
| 2026-05-06 16:11 | 48.35862 | 11.79518 | 1483 ft | 10 kts | 354° |
| 2026-05-06 16:11 | 48.35939 | 11.79506 | 1490 ft | 12 kts | 353° |
| 2026-05-06 16:12 | 48.35994 | 11.79497 | 1486 ft | 4 kts | 353° |
| 2026-05-06 16:12 | 48.36005 | 11.79495 | 1484 ft | 0 kts | 353° |
| 2026-05-06 16:12 | 48.36026 | 11.79491 | 1484 ft | 7 kts | 353° |
| 2026-05-06 16:13 | 48.36096 | 11.79479 | 1490 ft | 12 kts | 353° |
| 2026-05-06 16:13 | 48.36174 | 11.79468 | 1480 ft | 10 kts | 6° |
| 2026-05-06 16:13 | 48.36220 | 11.79554 | 1486 ft | 13 kts | 77° |
| 2026-05-06 16:13 | 48.36231 | 11.79695 | 1488 ft | 14 kts | 84° |
| 2026-05-06 16:14 | 48.36243 | 11.79853 | 1487 ft | 16 kts | 83° |
| 2026-05-06 16:14 | 48.36257 | 11.80036 | 1494 ft | 19 kts | 83° |
| 2026-05-06 16:14 | 48.36272 | 11.80240 | 1489 ft | 21 kts | 83° |
| 2026-05-06 16:14 | 48.36290 | 11.80469 | 1486 ft | 23 kts | 83° |
| 2026-05-06 16:15 | 48.36309 | 11.80713 | 1479 ft | 24 kts | 83° |
| 2026-05-06 16:15 | 48.36329 | 11.80972 | 1494 ft | 26 kts | 83° |
| 2026-05-06 16:15 | 48.36350 | 11.81244 | 1482 ft | 27 kts | 83° |
| 2026-05-06 16:15 | 48.36372 | 11.81527 | 1492 ft | 28 kts | 83° |
| 2026-05-06 16:16 | 48.36394 | 11.81816 | 1482 ft | 22 kts | 83° |
| 2026-05-06 16:16 | 48.36391 | 11.81988 | 1484 ft | 13 kts | 90° |
| 2026-05-06 16:16 | 48.36402 | 11.82095 | 1491 ft | 7 kts | 63° |
| 2026-05-06 16:16 | 48.36451 | 11.82136 | 1484 ft | 10 kts | 5° |
| 2026-05-06 16:17 | 48.36525 | 11.82126 | 1490 ft | 12 kts | 353° |
| 2026-05-06 16:17 | 48.36613 | 11.82105 | 1486 ft | 14 kts | 346° |
| 2026-05-06 16:17 | 48.36672 | 11.82068 | 1481 ft | 6 kts | 311° |
| 2026-05-06 16:17 | 48.36680 | 11.81995 | 1483 ft | 6 kts | 262° |
| 2026-05-06 16:18 | 48.36678 | 11.81967 | 1484 ft | 16 kts | 263° |
| 2026-05-06 16:18 | 48.36638 | 11.81458 | 1481 ft | 80 kts | 263° |
| 2026-05-06 16:18 | 48.36553 | 11.80345 | 1482 ft | 134 kts | 263° |
| 2026-05-06 16:18 | 48.36426 | 11.78716 | 1506 ft | 177 kts | 264° |
| 2026-05-06 16:19 | 48.36277 | 11.76796 | 1934 ft | 187 kts | 266° |
| 2026-05-06 16:19 | 48.36170 | 11.74823 | 2590 ft | 191 kts | 266° |
| 2026-05-06 16:19 | 48.36040 | 11.72823 | 3207 ft | 194 kts | 264° |
| 2026-05-06 16:19 | 48.35875 | 11.70746 | 3635 ft | 206 kts | 263° |
| 2026-05-06 16:20 | 48.35797 | 11.68514 | 3967 ft | 222 kts | 278° |
| 2026-05-06 16:20 | 48.36339 | 11.66273 | 4294 ft | 239 kts | 299° |
| 2026-05-06 16:20 | 48.37239 | 11.64043 | 4646 ft | 258 kts | 302° |
| 2026-05-06 16:20 | 48.38225 | 11.61692 | 5108 ft | 270 kts | 301° |
| 2026-05-06 16:21 | 48.39236 | 11.59277 | 5796 ft | 275 kts | 301° |
| 2026-05-06 16:21 | 48.40259 | 11.56804 | 6497 ft | 281 kts | 300° |
| 2026-05-06 16:21 | 48.41292 | 11.54274 | 7285 ft | 284 kts | 299° |
| 2026-05-06 16:21 | 48.42329 | 11.51726 | 8121 ft | 286 kts | 300° |
| 2026-05-06 16:22 | 48.43675 | 11.49544 | 8879 ft | 295 kts | 327° |
| 2026-05-06 16:22 | 48.45586 | 11.48357 | 9704 ft | 302 kts | 342° |
| 2026-05-06 16:22 | 48.47669 | 11.47503 | 10205 ft | 318 kts | 343° |
| 2026-05-06 16:22 | 48.49855 | 11.46601 | 10720 ft | 331 kts | 342° |
| 2026-05-06 16:23 | 48.55481 | 11.43953 | 12946 ft | 335 kts | 338° |
| 2026-05-06 16:23 | 48.60591 | 11.41343 | 14671 ft | 344 kts | 337° |
| 2026-05-06 16:23 | 48.65241 | 11.38934 | 16005 ft | 354 kts | 337° |
| 2026-05-06 16:23 | 48.69991 | 11.36231 | 17342 ft | 361 kts | 330° |
| 2026-05-06 16:24 | 48.74416 | 11.32230 | 18669 ft | 366 kts | 321° |
| 2026-05-06 16:24 | 48.78784 | 11.27725 | 20077 ft | 370 kts | 321° |
| 2026-05-06 16:24 | 48.83361 | 11.22998 | 21372 ft | 378 kts | 319° |
| 2026-05-06 16:24 | 48.87665 | 11.17564 | 22651 ft | 382 kts | 313° |
| 2026-05-06 16:25 | 48.91069 | 11.12785 | 23592 ft | 389 kts | 312° |
| 2026-05-06 16:25 | 48.95600 | 11.06438 | 23771 ft | 390 kts | 312° |
| 2026-05-06 16:25 | 49.05486 | 10.92568 | 23806 ft | 389 kts | 313° |
| 2026-05-06 16:25 | 49.15535 | 10.78380 | 23816 ft | 389 kts | 313° |
| 2026-05-06 16:26 | 49.25038 | 10.64086 | 23807 ft | 388 kts | 310° |
| 2026-05-06 16:26 | 49.29328 | 10.57298 | 23802 ft | 385 kts | 310° |
| 2026-05-06 16:26 | 49.31173 | 10.54381 | 23804 ft | 385 kts | 310° |
| 2026-05-06 16:26 | 49.33034 | 10.51437 | 23804 ft | 384 kts | 310° |
| 2026-05-06 16:27 | 49.34851 | 10.48429 | 23801 ft | 383 kts | 308° |
| 2026-05-06 16:27 | 49.36565 | 10.45299 | 23776 ft | 382 kts | 305° |
| 2026-05-06 16:27 | 49.38172 | 10.42048 | 23468 ft | 380 kts | 302° |
| 2026-05-06 16:27 | 49.39689 | 10.38755 | 23096 ft | 376 kts | 302° |
| 2026-05-06 16:28 | 49.41189 | 10.35457 | 22723 ft | 382 kts | 301° |
| 2026-05-06 16:28 | 49.43652 | 10.30017 | 22090 ft | 396 kts | 302° |
| 2026-05-06 16:28 | 49.46987 | 10.22684 | 21250 ft | 393 kts | 302° |
| 2026-05-06 16:28 | 49.50349 | 10.15281 | 20413 ft | 388 kts | 302° |
| 2026-05-06 16:29 | 49.53729 | 10.07813 | 19562 ft | 384 kts | 302° |
| 2026-05-06 16:29 | 49.57025 | 10.00504 | 18725 ft | 379 kts | 302° |
| 2026-05-06 16:29 | 49.60417 | 9.92961 | 17807 ft | 375 kts | 302° |
| 2026-05-06 16:29 | 49.63678 | 9.85683 | 16941 ft | 370 kts | 302° |
| 2026-05-06 16:30 | 49.67000 | 9.78258 | 16036 ft | 365 kts | 302° |
| 2026-05-06 16:30 | 49.68252 | 9.75453 | 15718 ft | 363 kts | 302° |
| 2026-05-06 16:30 | 49.70143 | 9.71207 | 15225 ft | 361 kts | 302° |
| 2026-05-06 16:30 | 49.71559 | 9.68023 | 14847 ft | 359 kts | 302° |
| 2026-05-06 16:31 | 49.72968 | 9.64851 | 14471 ft | 357 kts | 302° |
| 2026-05-06 16:31 | 49.74363 | 9.61707 | 14094 ft | 355 kts | 302° |
| 2026-05-06 16:31 | 49.75756 | 9.58566 | 13717 ft | 353 kts | 302° |
| 2026-05-06 16:31 | 49.77138 | 9.55444 | 13307 ft | 351 kts | 302° |
| 2026-05-06 16:32 | 49.78509 | 9.52343 | 12903 ft | 349 kts | 302° |
| 2026-05-06 16:32 | 49.79873 | 9.49257 | 12521 ft | 346 kts | 302° |
| 2026-05-06 16:32 | 49.81229 | 9.46184 | 12153 ft | 344 kts | 302° |
| 2026-05-06 16:32 | 49.82569 | 9.43146 | 11814 ft | 339 kts | 302° |
| 2026-05-06 16:33 | 49.83887 | 9.40156 | 11514 ft | 332 kts | 302° |
| 2026-05-06 16:33 | 49.85144 | 9.37182 | 11154 ft | 327 kts | 298° |
| 2026-05-06 16:33 | 49.86204 | 9.34098 | 10787 ft | 322 kts | 296° |
| 2026-05-06 16:34 | 49.89472 | 9.29704 | 9986 ft | 314 kts | 339° |
| 2026-05-06 16:34 | 49.91508 | 9.28717 | 9638 ft | 307 kts | 342° |
| 2026-05-06 16:34 | 49.93543 | 9.27866 | 9207 ft | 299 kts | 343° |
| 2026-05-06 16:34 | 49.95524 | 9.27090 | 8805 ft | 288 kts | 344° |
| 2026-05-06 16:35 | 49.97440 | 9.26341 | 8396 ft | 279 kts | 343° |
| 2026-05-06 16:35 | 49.99295 | 9.25619 | 8008 ft | 271 kts | 343° |
| 2026-05-06 16:35 | 50.01115 | 9.24914 | 7634 ft | 268 kts | 343° |
| 2026-05-06 16:35 | 50.02920 | 9.24219 | 7249 ft | 267 kts | 343° |
| 2026-05-06 16:36 | 50.04114 | 9.23770 | 6966 ft | 264 kts | 343° |
| 2026-05-06 16:36 | 50.05871 | 9.23069 | 6572 ft | 257 kts | 335° |
| 2026-05-06 16:36 | 50.07300 | 9.21572 | 6172 ft | 244 kts | 303° |
| 2026-05-06 16:36 | 50.08069 | 9.19294 | 5980 ft | 234 kts | 287° |
| 2026-05-06 16:37 | 50.08583 | 9.16902 | 5717 ft | 231 kts | 284° |
| 2026-05-06 16:37 | 50.09044 | 9.14505 | 5455 ft | 229 kts | 283° |
| 2026-05-06 16:37 | 50.09505 | 9.12135 | 5226 ft | 227 kts | 283° |
| 2026-05-06 16:37 | 50.09963 | 9.09786 | 4958 ft | 226 kts | 283° |
| 2026-05-06 16:38 | 50.10424 | 9.07423 | 4796 ft | 227 kts | 283° |
| 2026-05-06 16:38 | 50.10833 | 9.05082 | 4667 ft | 226 kts | 279° |
| 2026-05-06 16:38 | 50.11151 | 9.02698 | 4538 ft | 224 kts | 278° |
| 2026-05-06 16:38 | 50.11456 | 9.00314 | 4353 ft | 224 kts | 278° |
| 2026-05-06 16:39 | 50.11769 | 8.97928 | 4247 ft | 225 kts | 279° |
| 2026-05-06 16:39 | 50.12059 | 8.95537 | 4136 ft | 223 kts | 272° |
| 2026-05-06 16:39 | 50.11983 | 8.93147 | 4048 ft | 219 kts | 257° |
| 2026-05-06 16:39 | 50.11600 | 8.90847 | 4046 ft | 220 kts | 252° |
| 2026-05-06 16:40 | 50.11150 | 8.88615 | 4052 ft | 221 kts | 250° |
| 2026-05-06 16:40 | 50.10646 | 8.86349 | 4041 ft | 220 kts | 250° |
| 2026-05-06 16:40 | 50.10114 | 8.84089 | 3829 ft | 221 kts | 249° |
| 2026-05-06 16:40 | 50.09575 | 8.81848 | 3532 ft | 221 kts | 249° |
| 2026-05-06 16:41 | 50.09030 | 8.79603 | 3222 ft | 221 kts | 250° |
| 2026-05-06 16:41 | 50.08492 | 8.77378 | 2880 ft | 216 kts | 250° |
| 2026-05-06 16:41 | 50.07975 | 8.75232 | 2637 ft | 205 kts | 250° |
| 2026-05-06 16:41 | 50.07489 | 8.73221 | 2416 ft | 191 kts | 252° |
| 2026-05-06 16:42 | 50.07040 | 8.71351 | 2129 ft | 179 kts | 252° |
| 2026-05-06 16:42 | 50.06614 | 8.69576 | 1891 ft | 167 kts | 252° |
| 2026-05-06 16:42 | 50.06218 | 8.67921 | 1685 ft | 160 kts | 251° |
| 2026-05-06 16:42 | 50.05835 | 8.66326 | 1482 ft | 155 kts | 252° |
| 2026-05-06 16:43 | 50.05489 | 8.64878 | 1284 ft | 154 kts | 253° |
| 2026-05-06 16:43 | 50.05116 | 8.63299 | 1033 ft | 154 kts | 252° |
| 2026-05-06 16:43 | 50.04739 | 8.61746 | 830 ft | 154 kts | 252° |
| 2026-05-06 16:43 | 50.04372 | 8.60193 | 581 ft | 153 kts | 252° |
| 2026-05-06 16:44 | 50.04003 | 8.58649 | 414 ft | 154 kts | 252° |
| 2026-05-06 16:44 | 50.03673 | 8.57249 | 366 ft | 115 kts | 250° |
| 2026-05-06 16:44 | 50.03471 | 8.56412 | 365 ft | 50 kts | 249° |
| 2026-05-06 16:44 | 50.03357 | 8.55935 | 360 ft | 44 kts | 250° |
| 2026-05-06 16:45 | 50.03307 | 8.55589 | 358 ft | 27 kts | 274° |
| 2026-05-06 16:45 | 50.03331 | 8.55345 | 358 ft | 22 kts | 279° |
| 2026-05-06 16:45 | 50.03358 | 8.55100 | 356 ft | 22 kts | 280° |
| 2026-05-06 16:45 | 50.03360 | 8.54902 | 358 ft | 19 kts | 249° |
| 2026-05-06 16:46 | 50.03305 | 8.54690 | 353 ft | 21 kts | 249° |
| 2026-05-06 16:46 | 50.03274 | 8.54548 | 351 ft | 9 kts | 268° |
| 2026-05-06 16:46 | 50.03312 | 8.54478 | 354 ft | 7 kts | 338° |